createdAt,value
2018-09-13T00:00:57.448Z,15.32
2018-09-13T00:01:59.590Z,14.60
2018-09-13T00:03:01.741Z,15.30
2018-09-13T00:04:03.922Z,14.03
2018-09-13T00:05:06.118Z,16.48
2018-09-13T00:06:08.292Z,15.78
2018-09-13T00:07:10.425Z,15.58
2018-09-13T00:08:12.553Z,13.80
2018-09-13T00:09:14.694Z,15.85
2018-09-13T00:10:16.846Z,16.02
2018-09-13T00:11:19.048Z,17.87
2018-09-13T00:12:21.177Z,14.85
2018-09-13T00:13:23.537Z,14.93
2018-09-13T00:14:25.673Z,13.20
2018-09-13T00:15:27.826Z,16.35
2018-09-13T00:16:29.955Z,16.30
2018-09-13T00:17:32.061Z,14.47
2018-09-13T00:18:34.198Z,11.63
2018-09-13T00:19:36.609Z,16.42
2018-09-13T00:20:38.737Z,17.17
2018-09-13T00:21:40.865Z,13.35
2018-09-13T00:22:42.976Z,12.73
2018-09-13T00:23:45.312Z,13.95
2018-09-13T00:24:47.481Z,14.60
2018-09-13T00:25:49.607Z,14.65
2018-09-13T00:26:51.926Z,15.90
2018-09-13T00:27:54.048Z,13.15
2018-09-13T00:28:56.154Z,16.52
2018-09-13T00:29:58.497Z,14.70
2018-09-13T00:31:00.595Z,12.43
2018-09-13T00:32:02.740Z,15.18
2018-09-13T00:33:05.435Z,13.25
2018-09-13T00:34:07.665Z,14.10
2018-09-13T00:35:09.851Z,15.43
2018-09-13T00:36:12.205Z,13.90
2018-09-13T00:37:14.345Z,15.85
2018-09-13T00:38:16.477Z,15.65
2018-09-13T00:39:18.590Z,14.65
2018-09-13T00:40:21.033Z,16.02
2018-09-13T00:41:23.160Z,17.85
2018-09-13T00:42:25.286Z,13.80
2018-09-13T00:43:27.389Z,14.10
2018-09-13T00:44:29.501Z,15.78
2018-09-13T00:45:31.834Z,15.00
2018-09-13T00:46:34.349Z,15.40
2018-09-13T00:47:41.077Z,12.88
2018-09-13T00:48:43.189Z,16.40
2018-09-13T00:49:45.293Z,15.43
2018-09-13T00:50:47.467Z,13.53
2018-09-13T00:51:49.602Z,16.87
2018-09-13T00:52:51.768Z,15.63
2018-09-13T00:53:53.893Z,14.23
2018-09-13T00:54:56.003Z,14.23
2018-09-13T00:55:58.125Z,17.17
2018-09-13T00:57:00.249Z,14.23
2018-09-13T00:58:02.370Z,12.37
2018-09-13T00:59:04.542Z,14.38
2018-09-13T01:00:07.051Z,15.28
2018-09-13T01:01:09.210Z,15.20
2018-09-13T01:02:11.367Z,15.13
2018-09-13T01:03:13.529Z,14.98
2018-09-13T01:04:15.625Z,11.97
2018-09-13T01:05:17.738Z,11.48
2018-09-13T01:06:20.354Z,13.68
2018-09-13T01:07:22.569Z,14.28
2018-09-13T01:08:24.885Z,15.03
2018-09-13T01:09:26.990Z,11.83
2018-09-13T01:10:29.101Z,11.68
2018-09-13T01:11:31.218Z,15.83
2018-09-13T01:12:33.350Z,13.15
2018-09-13T01:13:35.470Z,13.35
2018-09-13T01:14:37.861Z,12.93
2018-09-13T01:15:40.242Z,13.08
2018-09-13T01:16:42.361Z,12.03
2018-09-13T01:17:44.503Z,13.85
2018-09-13T01:18:46.694Z,15.85
2018-09-13T01:19:48.843Z,17.60
2018-09-13T01:20:50.962Z,14.60
2018-09-13T01:21:53.409Z,16.37
2018-09-13T01:22:55.737Z,17.35
2018-09-13T01:23:57.862Z,17.30
2018-09-13T01:25:00.225Z,20.50
2018-09-13T01:26:02.358Z,18.77
2018-09-13T01:27:04.552Z,13.95
2018-09-13T01:28:06.677Z,17.20
2018-09-13T01:29:08.840Z,21.57
2018-09-13T01:30:10.970Z,17.17
2018-09-13T01:31:13.078Z,18.40
2018-09-13T01:32:15.221Z,18.37
2018-09-13T01:33:17.341Z,16.27
2018-09-13T01:34:19.477Z,15.80
2018-09-13T01:35:21.602Z,14.00
2018-09-13T01:36:23.725Z,16.00
2018-09-13T01:37:25.866Z,14.98
2018-09-13T01:38:28.030Z,15.25
2018-09-13T01:39:30.145Z,17.80
2018-09-13T01:40:32.294Z,15.38
2018-09-13T01:41:34.402Z,16.35
2018-09-13T01:42:36.522Z,15.28
2018-09-13T01:43:38.852Z,18.67
2018-09-13T01:44:41.291Z,15.93
2018-09-13T01:45:43.494Z,15.45
2018-09-13T01:46:45.605Z,16.40
2018-09-13T01:47:47.721Z,14.90
2018-09-13T01:48:49.856Z,15.13
2018-09-13T01:49:51.965Z,16.30
2018-09-13T01:50:54.076Z,13.68
2018-09-13T01:51:56.668Z,14.65
2018-09-13T01:52:58.798Z,19.85
2018-09-13T01:54:00.936Z,17.35
2018-09-13T01:55:03.111Z,19.95
2018-09-13T01:56:05.282Z,20.70
2018-09-13T01:57:08.268Z,18.92
2018-09-13T01:58:10.415Z,20.70
2018-09-13T01:59:12.583Z,20.40
2018-09-13T02:00:14.742Z,19.62
2018-09-13T02:01:16.881Z,24.70
2018-09-13T02:02:19.019Z,16.50
2018-09-13T02:03:21.137Z,19.35
2018-09-13T02:04:23.281Z,20.97
2018-09-13T02:05:25.437Z,21.25
2018-09-13T02:06:27.578Z,19.42
2018-09-13T02:07:29.866Z,16.20
2018-09-13T02:08:31.973Z,19.95
2018-09-13T02:09:34.437Z,20.37
2018-09-13T02:10:36.540Z,17.05
2018-09-13T02:11:38.697Z,20.35
2018-09-13T02:12:40.837Z,24.65
2018-09-13T02:13:42.965Z,20.32
2018-09-13T02:14:45.102Z,22.20
2018-09-13T02:15:47.354Z,19.75
2018-09-13T02:16:49.485Z,21.45
2018-09-13T02:17:51.627Z,17.67
2018-09-13T02:18:53.794Z,18.92
2018-09-13T02:19:55.909Z,20.77
2018-09-13T02:20:58.042Z,19.92
2018-09-13T02:22:00.156Z,20.23
2018-09-13T02:23:02.279Z,19.07
2018-09-13T02:24:04.378Z,19.65
2018-09-13T02:25:06.533Z,22.58
2018-09-13T02:26:08.669Z,18.57
2018-09-13T02:27:10.795Z,20.90
2018-09-13T02:28:12.922Z,20.92
2018-09-13T02:29:15.109Z,20.97
2018-09-13T02:30:17.278Z,20.30
2018-09-13T02:31:19.493Z,18.70
2018-09-13T02:32:21.932Z,16.50
2018-09-13T02:33:24.045Z,19.00
2018-09-13T02:34:26.155Z,16.80
2018-09-13T02:35:28.266Z,16.85
2018-09-13T02:36:30.383Z,16.48
2018-09-13T02:37:32.590Z,20.52
2018-09-13T02:38:34.730Z,16.52
2018-09-13T02:39:37.167Z,18.12
2018-09-13T02:40:39.314Z,15.75
2018-09-13T02:41:41.469Z,16.95
2018-09-13T02:42:43.626Z,16.60
2018-09-13T02:43:46.011Z,17.73
2018-09-13T02:44:48.136Z,17.05
2018-09-13T02:45:50.332Z,16.82
2018-09-13T02:46:52.490Z,16.20
2018-09-13T02:47:54.624Z,17.98
2018-09-13T02:48:56.752Z,16.97
2018-09-13T02:49:58.877Z,15.95
2018-09-13T02:51:01.077Z,15.03
2018-09-13T02:52:03.184Z,15.72
2018-09-13T02:53:05.425Z,14.38
2018-09-13T02:54:07.582Z,16.55
2018-09-13T02:55:09.702Z,20.10
2018-09-13T02:56:11.799Z,17.75
2018-09-13T02:57:13.919Z,16.23
2018-09-13T02:58:16.056Z,15.83
2018-09-13T02:59:18.451Z,16.07
2018-09-13T03:00:20.711Z,16.52
2018-09-13T03:01:22.906Z,14.50
2018-09-13T03:02:25.045Z,14.28
2018-09-13T03:03:27.180Z,14.93
2018-09-13T03:04:29.419Z,15.85
2018-09-13T03:05:31.578Z,16.73
2018-09-13T03:06:34.023Z,15.35
2018-09-13T03:07:36.147Z,12.98
2018-09-13T03:08:38.552Z,18.50
2018-09-13T03:09:40.969Z,16.05
2018-09-13T03:10:43.082Z,15.23
2018-09-13T03:11:45.223Z,16.20
2018-09-13T03:12:47.652Z,15.63
2018-09-13T03:13:49.807Z,13.83
2018-09-13T03:14:52.244Z,16.93
2018-09-13T03:15:54.361Z,15.00
2018-09-13T03:16:56.486Z,16.20
2018-09-13T03:17:58.614Z,15.40
2018-09-13T03:19:00.997Z,15.53
2018-09-13T03:20:03.157Z,14.50
2018-09-13T03:21:05.266Z,14.40
2018-09-13T03:22:07.437Z,15.63
2018-09-13T03:23:09.759Z,13.98
2018-09-13T03:24:12.129Z,17.62
2018-09-13T03:25:14.489Z,16.80
2018-09-13T03:26:16.632Z,15.48
2018-09-13T03:27:18.794Z,13.88
2018-09-13T03:28:21.003Z,14.80
2018-09-13T03:29:23.218Z,11.93
2018-09-13T03:30:25.373Z,14.35
2018-09-13T03:31:27.506Z,13.55
2018-09-13T03:32:29.670Z,15.85
2018-09-13T03:33:31.865Z,13.83
2018-09-13T03:34:33.984Z,14.68
2018-09-13T03:35:36.129Z,17.35
2018-09-13T03:36:38.285Z,17.23
2018-09-13T03:37:40.684Z,18.10
2018-09-13T03:38:42.789Z,15.18
2018-09-13T03:39:44.921Z,17.80
2018-09-13T03:40:47.050Z,16.42
2018-09-13T03:41:49.218Z,15.70
2018-09-13T03:42:51.588Z,14.30
2018-09-13T03:43:53.713Z,14.45
2018-09-13T03:44:55.961Z,17.10
2018-09-13T03:45:58.395Z,15.13
2018-09-13T03:47:00.508Z,13.58
2018-09-13T03:48:02.618Z,14.47
2018-09-13T03:49:05.137Z,12.95
2018-09-13T03:50:07.346Z,17.67
2018-09-13T03:51:09.495Z,13.30
2018-09-13T03:52:11.828Z,10.68
2018-09-13T03:53:13.962Z,15.30
2018-09-13T03:54:16.536Z,14.30
2018-09-13T03:55:18.700Z,13.18
2018-09-13T03:56:20.871Z,15.50
2018-09-13T03:57:23.029Z,14.28
2018-09-13T03:58:25.186Z,16.70
2018-09-13T03:59:27.953Z,15.50
2018-09-13T04:00:30.069Z,14.33
2018-09-13T04:01:32.177Z,12.58
2018-09-13T04:02:34.287Z,14.60
2018-09-13T04:03:36.445Z,13.35
2018-09-13T04:04:38.574Z,11.70
2018-09-13T04:05:40.781Z,15.35
2018-09-13T04:06:42.906Z,13.48
2018-09-13T04:07:45.049Z,14.20
2018-09-13T04:08:47.264Z,12.78
2018-09-13T04:09:49.442Z,13.30
2018-09-13T04:10:51.581Z,14.45
2018-09-13T04:11:53.759Z,11.40
2018-09-13T04:12:55.946Z,14.60
2018-09-13T04:13:58.122Z,14.18
2018-09-13T04:15:00.318Z,12.88
2018-09-13T04:16:02.526Z,13.13
2018-09-13T04:17:04.941Z,14.47
2018-09-13T04:18:07.100Z,14.90
2018-09-13T04:19:09.272Z,13.85
2018-09-13T04:20:11.417Z,13.13
2018-09-13T04:21:13.766Z,15.30
2018-09-13T04:22:16.505Z,15.32
2018-09-13T04:23:18.650Z,12.90
2018-09-13T04:24:21.094Z,12.78
2018-09-13T04:25:23.238Z,14.83
2018-09-13T04:26:25.406Z,15.10
2018-09-13T04:27:27.561Z,17.23
2018-09-13T04:28:29.705Z,15.65
2018-09-13T04:29:31.853Z,13.22
2018-09-13T04:30:34.041Z,16.57
2018-09-13T04:31:36.184Z,18.40
2018-09-13T04:32:38.342Z,16.75
2018-09-13T04:33:40.815Z,15.03
2018-09-13T04:34:42.920Z,14.13
2018-09-13T04:35:45.211Z,16.42
2018-09-13T04:36:47.247Z,15.58
2018-09-13T04:37:49.668Z,15.83
2018-09-13T04:38:51.873Z,15.43
2018-09-13T04:39:54.007Z,13.10
2018-09-13T04:40:56.125Z,16.32
2018-09-13T04:41:58.581Z,13.90
2018-09-13T04:43:00.729Z,12.55
2018-09-13T04:44:03.102Z,16.17
2018-09-13T04:45:05.295Z,17.17
2018-09-13T04:46:07.469Z,14.63
2018-09-13T04:47:09.602Z,19.92
2018-09-13T04:48:11.778Z,14.30
2018-09-13T04:49:13.956Z,17.15
2018-09-13T04:50:16.073Z,17.00
2018-09-13T04:51:18.209Z,17.15
2018-09-13T04:52:20.355Z,16.20
2018-09-13T04:53:22.501Z,16.90
2018-09-13T04:54:24.667Z,14.07
2018-09-13T04:55:26.816Z,15.30
2018-09-13T04:56:28.976Z,13.60
2018-09-13T04:57:31.118Z,18.92
2018-09-13T04:58:33.291Z,14.50
2018-09-13T04:59:35.426Z,17.23
2018-09-13T05:00:37.594Z,13.75
2018-09-13T05:01:41.267Z,16.48
2018-09-13T05:02:43.391Z,16.27
2018-09-13T05:03:45.547Z,15.53
2018-09-13T05:04:47.673Z,18.15
2018-09-13T05:05:50.117Z,15.40
2018-09-13T05:06:52.251Z,15.48
2018-09-13T05:07:54.371Z,15.70
2018-09-13T05:08:56.546Z,14.43
2018-09-13T05:09:58.696Z,16.07
2018-09-13T05:11:00.817Z,13.40
2018-09-13T05:12:02.993Z,13.72
2018-09-13T05:13:05.606Z,14.85
2018-09-13T05:14:07.769Z,15.08
2018-09-13T05:15:09.877Z,15.00
2018-09-13T05:16:12.028Z,17.50
2018-09-13T05:17:14.185Z,13.35
2018-09-13T05:18:16.301Z,15.15
2018-09-13T05:19:18.444Z,16.20
2018-09-13T05:20:20.593Z,14.70
2018-09-13T05:21:22.737Z,15.70
2018-09-13T05:22:24.902Z,15.65
2018-09-13T05:23:27.100Z,13.25
2018-09-13T05:24:30.155Z,13.22
2018-09-13T05:25:32.269Z,15.70
2018-09-13T05:26:34.418Z,16.27
2018-09-13T05:27:36.615Z,15.60
2018-09-13T05:28:38.763Z,15.70
2018-09-13T05:29:41.330Z,15.72
2018-09-13T05:30:43.486Z,12.05
2018-09-13T05:31:45.749Z,13.58
2018-09-13T05:32:47.816Z,13.22
2018-09-13T05:33:49.931Z,16.60
2018-09-13T05:34:52.090Z,13.05
2018-09-13T05:35:54.519Z,14.10
2018-09-13T05:36:56.655Z,12.45
2018-09-13T05:37:58.779Z,12.30
2018-09-13T05:39:00.909Z,13.13
2018-09-13T05:40:03.067Z,18.00
2018-09-13T05:41:05.257Z,15.05
2018-09-13T05:42:07.465Z,14.10
2018-09-13T05:43:09.615Z,11.57
2018-09-13T05:44:12.312Z,14.63
2018-09-13T05:45:14.605Z,15.53
2018-09-13T05:46:16.707Z,15.65
2018-09-13T05:47:18.837Z,13.30
2018-09-13T05:48:20.961Z,16.23
2018-09-13T05:49:23.145Z,15.78
2018-09-13T05:50:25.273Z,14.73
2018-09-13T05:51:27.385Z,12.80
2018-09-13T05:52:29.515Z,15.43
2018-09-13T05:53:31.699Z,14.58
2018-09-13T05:54:33.814Z,15.63
2018-09-13T05:55:35.989Z,16.35
2018-09-13T05:56:38.102Z,16.52
2018-09-13T05:57:40.240Z,19.52
2018-09-13T05:58:42.357Z,16.90
2018-09-13T05:59:44.485Z,14.43
2018-09-13T06:00:46.653Z,13.45
2018-09-13T06:01:48.789Z,16.30
2018-09-13T06:02:51.129Z,15.50
2018-09-13T06:03:53.262Z,14.38
2018-09-13T06:04:55.365Z,11.28
2018-09-13T06:05:57.492Z,15.93
2018-09-13T06:06:59.641Z,13.53
2018-09-13T06:08:01.861Z,15.40
2018-09-13T06:09:05.794Z,14.38
2018-09-13T06:10:07.968Z,13.88
2018-09-13T06:11:10.130Z,16.55
2018-09-13T06:12:12.256Z,13.30
2018-09-13T06:13:14.410Z,15.95
2018-09-13T06:14:16.539Z,13.43
2018-09-13T06:15:18.894Z,14.73
2018-09-13T06:16:21.030Z,14.68
2018-09-13T06:17:23.248Z,15.65
2018-09-13T06:18:25.370Z,15.38
2018-09-13T06:19:27.490Z,14.10
2018-09-13T06:20:29.605Z,13.62
2018-09-13T06:21:31.725Z,12.53
2018-09-13T06:22:33.871Z,14.05
2018-09-13T06:23:36.132Z,13.18
2018-09-13T06:24:38.281Z,13.75
2018-09-13T06:25:40.938Z,17.45
2018-09-13T06:26:43.088Z,15.90
2018-09-13T06:27:45.241Z,18.77
2018-09-13T06:28:47.366Z,17.73
2018-09-13T06:29:49.541Z,17.62
2018-09-13T06:30:51.864Z,15.48
2018-09-13T06:31:53.980Z,15.68
2018-09-13T06:32:56.130Z,14.30
2018-09-13T06:33:58.634Z,14.50
2018-09-13T06:35:00.746Z,13.20
2018-09-13T06:36:02.874Z,14.35
2018-09-13T06:37:05.009Z,14.65
2018-09-13T06:38:07.192Z,13.35
2018-09-13T06:39:10.399Z,13.30
2018-09-13T06:40:12.780Z,15.35
2018-09-13T06:41:14.975Z,16.42
2018-09-13T06:42:17.142Z,14.60
2018-09-13T06:43:19.251Z,13.08
2018-09-13T06:44:21.395Z,14.10
2018-09-13T06:45:23.554Z,15.70
2018-09-13T06:46:25.680Z,14.28
2018-09-13T06:47:27.845Z,15.40
2018-09-13T06:48:29.990Z,13.58
2018-09-13T06:49:32.113Z,15.93
2018-09-13T06:50:34.262Z,18.82
2018-09-13T06:51:36.425Z,17.82
2018-09-13T06:52:38.548Z,18.55
2018-09-13T06:53:40.665Z,16.37
2018-09-13T06:54:42.805Z,15.80
2018-09-13T06:55:44.956Z,17.67
2018-09-13T06:56:47.112Z,17.77
2018-09-13T06:57:49.245Z,15.10
2018-09-13T06:58:51.381Z,14.87
2018-09-13T06:59:53.566Z,13.68
2018-09-13T07:00:55.712Z,15.80
2018-09-13T07:01:57.837Z,18.42
2018-09-13T07:02:59.940Z,18.57
2018-09-13T07:04:02.086Z,14.73
2018-09-13T07:05:04.532Z,14.95
2018-09-13T07:06:06.746Z,13.83
2018-09-13T07:07:08.939Z,14.05
2018-09-13T07:08:11.138Z,14.10
2018-09-13T07:09:14.327Z,14.07
2018-09-13T07:10:16.422Z,15.18
2018-09-13T07:11:18.550Z,18.40
2018-09-13T07:12:20.690Z,18.57
2018-09-13T07:13:22.821Z,13.58
2018-09-13T07:14:24.946Z,11.65
2018-09-13T07:15:27.315Z,16.50
2018-09-13T07:16:29.425Z,14.45
2018-09-13T07:17:31.606Z,15.43
2018-09-13T07:18:33.745Z,17.17
2018-09-13T07:19:35.910Z,18.00
2018-09-13T07:20:38.113Z,14.93
2018-09-13T07:21:40.264Z,15.98
2018-09-13T07:22:42.428Z,16.77
2018-09-13T07:23:44.936Z,17.07
2018-09-13T07:24:47.354Z,15.63
2018-09-13T07:25:49.466Z,15.48
2018-09-13T07:26:51.621Z,17.98
2018-09-13T07:27:53.805Z,16.87
2018-09-13T07:28:55.960Z,15.00
2018-09-13T07:29:58.106Z,14.28
2018-09-13T07:31:00.313Z,16.07
2018-09-13T07:32:02.449Z,15.15
2018-09-13T07:33:04.929Z,20.62
2018-09-13T07:34:07.152Z,16.60
2018-09-13T07:35:09.269Z,17.65
2018-09-13T07:36:11.386Z,17.32
2018-09-13T07:37:13.525Z,16.50
2018-09-13T07:38:16.389Z,15.78
2018-09-13T07:39:18.588Z,18.77
2018-09-13T07:40:20.726Z,13.22
2018-09-13T07:41:22.906Z,18.82
2018-09-13T07:42:25.095Z,16.10
2018-09-13T07:43:27.182Z,16.75
2018-09-13T07:44:29.313Z,15.38
2018-09-13T07:45:31.442Z,14.63
2018-09-13T07:46:33.686Z,14.25
2018-09-13T07:47:35.845Z,15.20
2018-09-13T07:48:38.232Z,15.35
2018-09-13T07:49:40.465Z,15.75
2018-09-13T07:50:42.614Z,16.32
2018-09-13T07:51:45.108Z,16.57
2018-09-13T07:52:47.263Z,17.42
2018-09-13T07:53:49.374Z,15.83
2018-09-13T07:54:51.490Z,16.85
2018-09-13T07:55:53.886Z,15.63
2018-09-13T07:56:56.062Z,17.00
2018-09-13T07:57:59.295Z,14.15
2018-09-13T07:59:01.451Z,16.02
2018-09-13T08:00:03.739Z,16.75
2018-09-13T08:01:06.071Z,13.20
2018-09-13T08:02:08.424Z,15.18
2018-09-13T08:03:11.070Z,12.10
2018-09-13T08:04:13.242Z,17.55
2018-09-13T08:05:15.417Z,14.30
2018-09-13T08:06:17.550Z,21.05
2018-09-13T08:07:19.936Z,14.95
2018-09-13T08:08:22.041Z,12.90
2018-09-13T08:09:24.158Z,15.98
2018-09-13T08:10:26.289Z,15.53
2018-09-13T08:11:28.430Z,14.58
2018-09-13T08:12:30.566Z,17.05
2018-09-13T08:13:32.689Z,16.27
2018-09-13T08:14:34.837Z,14.78
2018-09-13T08:15:36.997Z,18.80
2018-09-13T08:16:39.373Z,15.08
2018-09-13T08:17:41.529Z,16.20
2018-09-13T08:18:43.681Z,17.50
2018-09-13T08:19:46.288Z,19.67
2018-09-13T08:20:48.438Z,17.98
2018-09-13T08:21:50.731Z,17.10
2018-09-13T08:22:52.705Z,22.00
2018-09-13T08:23:54.816Z,20.08
2018-09-13T08:24:56.985Z,18.75
2018-09-13T08:25:59.142Z,20.97
2018-09-13T08:27:01.353Z,19.37
2018-09-13T08:28:03.415Z,23.77
2018-09-13T08:29:05.550Z,19.37
2018-09-13T08:30:07.985Z,16.07
2018-09-13T08:31:10.114Z,16.65
2018-09-13T08:32:12.245Z,16.65
2018-09-13T08:33:14.392Z,16.50
2018-09-13T08:34:16.492Z,15.20
2018-09-13T08:35:18.647Z,16.02
2018-09-13T08:36:20.757Z,18.70
2018-09-13T08:37:22.891Z,18.30
2018-09-13T08:38:25.074Z,17.55
2018-09-13T08:39:27.194Z,18.92
2018-09-13T08:40:29.350Z,15.15
2018-09-13T08:41:31.485Z,22.67
2018-09-13T08:42:33.614Z,18.55
2018-09-13T08:43:35.783Z,22.05
2018-09-13T08:44:37.903Z,18.48
2018-09-13T08:45:40.098Z,17.60
2018-09-13T08:46:42.259Z,14.50
2018-09-13T08:47:44.478Z,16.60
2018-09-13T08:48:47.062Z,15.15
2018-09-13T08:49:49.196Z,14.60
2018-09-13T08:50:51.306Z,20.15
2018-09-13T08:51:53.496Z,14.98
2018-09-13T08:52:55.569Z,15.05
2018-09-13T08:53:57.928Z,15.63
2018-09-13T08:55:00.124Z,17.80
2018-09-13T08:56:02.215Z,17.50
2018-09-13T08:57:04.456Z,18.95
2018-09-13T08:58:06.594Z,18.35
2018-09-13T08:59:08.709Z,17.90
2018-09-13T09:00:12.756Z,18.90
2018-09-13T09:01:14.883Z,21.57
2018-09-13T09:02:17.329Z,15.05
2018-09-13T09:03:19.453Z,19.95
2018-09-13T09:04:21.606Z,20.92
2018-09-13T09:05:23.784Z,19.12
2018-09-13T09:06:25.977Z,19.70
2018-09-13T09:07:28.103Z,16.97
2018-09-13T09:08:30.249Z,16.52
2018-09-13T09:09:32.387Z,17.30
2018-09-13T09:10:34.562Z,15.25
2018-09-13T09:11:36.700Z,18.32
2018-09-13T09:12:38.836Z,18.80
2018-09-13T09:13:41.006Z,19.07
2018-09-13T09:14:43.810Z,17.32
2018-09-13T09:15:46.001Z,15.65
2018-09-13T09:16:48.166Z,17.80
2018-09-13T09:17:50.358Z,19.02
2018-09-13T09:18:52.489Z,15.70
2018-09-13T09:19:54.822Z,15.32
2018-09-13T09:20:56.970Z,17.42
2018-09-13T09:21:59.341Z,17.17
2018-09-13T09:23:01.746Z,18.40
2018-09-13T09:24:03.913Z,14.95
2018-09-13T09:25:06.390Z,13.65
2018-09-13T09:26:08.851Z,13.90
2018-09-13T09:27:10.995Z,14.80
2018-09-13T09:28:13.150Z,13.20
2018-09-13T09:29:15.756Z,16.85
2018-09-13T09:30:18.131Z,17.07
2018-09-13T09:31:20.285Z,16.30
2018-09-13T09:32:22.470Z,15.93
2018-09-13T09:33:24.581Z,15.45
2018-09-13T09:34:26.695Z,17.70
2018-09-13T09:35:29.037Z,15.50
2018-09-13T09:36:31.185Z,13.95
2018-09-13T09:37:33.318Z,18.30
2018-09-13T09:38:35.696Z,17.10
2018-09-13T09:39:37.870Z,12.40
2018-09-13T09:40:40.309Z,17.35
2018-09-13T09:41:42.952Z,14.80
2018-09-13T09:42:45.175Z,17.62
2018-09-13T09:43:47.507Z,18.25
2018-09-13T09:44:49.699Z,14.73
2018-09-13T09:45:51.929Z,15.28
2018-09-13T09:46:54.090Z,14.25
2018-09-13T09:47:56.341Z,15.25
2018-09-13T09:48:58.972Z,16.07
2018-09-13T09:50:01.207Z,16.70
2018-09-13T09:51:03.377Z,16.45
2018-09-13T09:52:05.682Z,16.55
2018-09-13T09:53:07.782Z,15.90
2018-09-13T09:54:09.986Z,13.32
2018-09-13T09:55:12.145Z,14.53
2018-09-13T09:56:14.350Z,13.25
2018-09-13T09:57:16.775Z,16.82
2018-09-13T09:58:18.921Z,18.00
2018-09-13T09:59:21.089Z,18.07
2018-09-13T10:00:27.832Z,15.65
2018-09-13T10:01:34.068Z,13.00
2018-09-13T10:02:36.206Z,14.53
2018-09-13T10:03:38.369Z,14.90
2018-09-13T10:04:40.565Z,13.85
2018-09-13T10:05:42.641Z,15.30
2018-09-13T10:06:44.872Z,16.67
2018-09-13T10:07:47.251Z,16.40
2018-09-13T10:08:49.433Z,13.50
2018-09-13T10:09:51.577Z,17.50
2018-09-13T10:10:53.722Z,18.10
2018-09-13T10:11:55.836Z,16.57
2018-09-13T10:12:57.978Z,17.90
2018-09-13T10:14:00.106Z,13.10
2018-09-13T10:15:08.005Z,14.20
2018-09-13T10:16:15.911Z,13.65
2018-09-13T10:17:23.769Z,15.45
2018-09-13T10:18:31.665Z,16.60
2018-09-13T10:19:39.550Z,23.92
2018-09-13T10:20:47.453Z,19.48
2018-09-13T10:21:56.064Z,16.45
2018-09-13T10:23:03.787Z,17.60
2018-09-13T10:24:11.678Z,19.37
2018-09-13T10:25:19.824Z,16.12
2018-09-13T10:26:27.598Z,15.75
2018-09-13T10:27:35.537Z,16.20
2018-09-13T10:28:43.497Z,12.45
2018-09-13T10:29:51.248Z,16.35
2018-09-13T10:30:59.078Z,13.65
2018-09-13T10:32:07.136Z,14.28
2018-09-13T10:33:15.028Z,14.33
2018-09-13T10:34:23.217Z,12.43
2018-09-13T10:35:31.457Z,15.00
2018-09-13T10:36:39.351Z,13.05
2018-09-13T10:37:47.254Z,14.47
2018-09-13T10:38:55.245Z,13.15
2018-09-13T10:40:03.141Z,13.68
2018-09-13T10:41:11.017Z,17.23
2018-09-13T10:42:19.317Z,15.90
2018-09-13T10:43:27.130Z,14.75
2018-09-13T10:44:35.041Z,15.98
2018-09-13T10:45:42.954Z,17.07
2018-09-13T10:46:45.154Z,15.10
2018-09-13T10:47:56.925Z,14.98
2018-09-13T10:49:01.518Z,12.65
2018-09-13T10:50:09.501Z,13.85
2018-09-13T10:51:16.249Z,19.42
2018-09-13T10:52:20.097Z,13.43
2018-09-13T10:53:26.826Z,14.53
2018-09-13T10:54:43.816Z,13.80
2018-09-13T10:55:47.136Z,14.87
2018-09-13T10:56:49.280Z,11.85
2018-09-13T10:57:51.426Z,15.10
2018-09-13T10:58:53.841Z,11.70
2018-09-13T10:59:55.990Z,12.65
2018-09-13T11:00:58.115Z,13.22
2018-09-13T11:02:00.269Z,13.40
2018-09-13T11:03:02.426Z,13.55
2018-09-13T11:04:04.592Z,12.23
2018-09-13T11:05:06.774Z,13.45
2018-09-13T11:06:08.906Z,10.63
2018-09-13T11:07:11.677Z,14.35
2018-09-13T11:08:14.121Z,11.90
2018-09-13T11:09:16.266Z,12.65
2018-09-13T11:10:18.417Z,12.30
2018-09-13T11:11:20.639Z,13.98
2018-09-13T11:12:26.889Z,11.90
2018-09-13T11:13:37.585Z,16.50
2018-09-13T11:14:56.317Z,11.75
2018-09-13T11:15:58.493Z,12.05
2018-09-13T11:17:00.644Z,14.40
2018-09-13T11:18:03.994Z,12.58
2018-09-13T11:19:06.130Z,13.43
2018-09-13T11:20:08.328Z,14.70
2018-09-13T11:21:10.445Z,15.20
2018-09-13T11:22:12.812Z,15.00
2018-09-13T11:23:14.959Z,15.85
2018-09-13T11:24:17.402Z,13.68
2018-09-13T11:25:19.549Z,15.75
2018-09-13T11:26:21.702Z,17.90
2018-09-13T11:27:23.874Z,15.98
2018-09-13T11:28:26.353Z,16.15
2018-09-13T11:29:28.500Z,13.72
2018-09-13T11:30:30.714Z,13.95
2018-09-13T11:31:32.863Z,10.15
2018-09-13T11:32:35.083Z,10.70
2018-09-13T11:33:37.445Z,9.23
2018-09-13T11:34:40.180Z,11.38
2018-09-13T11:35:42.322Z,12.30
2018-09-13T11:36:44.501Z,10.93
2018-09-13T11:37:46.692Z,11.65
2018-09-13T11:38:49.031Z,12.37
2018-09-13T11:39:51.228Z,12.40
2018-09-13T11:40:53.597Z,14.20
2018-09-13T11:41:55.553Z,13.93
2018-09-13T11:42:57.713Z,11.65
2018-09-13T11:43:59.871Z,20.05
2018-09-13T11:45:02.260Z,15.40
2018-09-13T11:46:04.465Z,13.58
2018-09-13T11:47:07.349Z,14.25
2018-09-13T11:48:09.568Z,12.88
2018-09-13T11:49:11.693Z,13.00
2018-09-13T11:50:14.689Z,12.65
2018-09-13T11:51:16.852Z,14.25
2018-09-13T11:52:19.012Z,12.98
2018-09-13T11:53:21.169Z,14.95
2018-09-13T11:54:23.336Z,13.53
2018-09-13T11:55:25.498Z,15.72
2018-09-13T11:56:27.971Z,15.40
2018-09-13T11:57:30.124Z,11.55
2018-09-13T11:58:32.644Z,13.72
2018-09-13T11:59:34.822Z,13.22
2018-09-13T12:00:36.964Z,14.75
2018-09-13T12:01:39.082Z,12.98
2018-09-13T12:02:41.227Z,11.93
2018-09-13T12:03:43.448Z,12.85
2018-09-13T12:04:45.605Z,10.85
2018-09-13T12:05:50.064Z,11.68
2018-09-13T12:06:52.477Z,10.35
2018-09-13T12:07:54.685Z,10.00
2018-09-13T12:08:56.851Z,10.05
2018-09-13T12:09:59.023Z,11.10
2018-09-13T12:11:01.427Z,10.18
2018-09-13T12:12:03.744Z,9.40
2018-09-13T12:13:06.145Z,12.50
2018-09-13T12:14:08.657Z,12.23
2018-09-13T12:15:11.114Z,12.68
2018-09-13T12:16:13.333Z,13.65
2018-09-13T12:17:15.925Z,10.32
2018-09-13T12:18:18.156Z,10.20
2018-09-13T12:19:20.379Z,14.15
2018-09-13T12:20:22.719Z,13.15
2018-09-13T12:21:24.633Z,12.25
2018-09-13T12:22:26.884Z,13.43
2018-09-13T12:23:29.075Z,13.62
2018-09-13T12:24:31.256Z,10.65
2018-09-13T12:25:33.445Z,13.65
2018-09-13T12:26:35.634Z,12.75
2018-09-13T12:27:37.838Z,11.03
2018-09-13T12:28:40.007Z,10.38
2018-09-13T12:29:42.357Z,12.45
2018-09-13T12:30:44.725Z,13.25
2018-09-13T12:31:46.918Z,11.25
2018-09-13T12:32:49.658Z,11.15
2018-09-13T12:33:51.871Z,11.22
2018-09-13T12:34:54.382Z,13.28
2018-09-13T12:35:56.845Z,13.25
2018-09-13T12:36:58.992Z,13.40
2018-09-13T12:38:01.255Z,13.88
2018-09-13T12:39:08.698Z,15.78
2018-09-13T12:40:10.881Z,11.63
2018-09-13T12:41:13.138Z,11.35
2018-09-13T12:42:15.317Z,13.65
2018-09-13T12:43:17.688Z,11.85
2018-09-13T12:44:20.064Z,10.58
2018-09-13T12:45:22.259Z,10.82
2018-09-13T12:46:24.454Z,11.93
2018-09-13T12:47:26.650Z,10.78
2018-09-13T12:48:28.852Z,11.38
2018-09-13T12:49:31.067Z,9.58
2018-09-13T12:50:33.271Z,10.30
2018-09-13T12:51:35.467Z,11.30
2018-09-13T12:52:37.689Z,10.60
2018-09-13T12:53:40.127Z,10.48
2018-09-13T12:54:42.370Z,12.78
2018-09-13T12:55:51.324Z,11.25
2018-09-13T12:56:53.957Z,9.20
2018-09-13T12:57:56.158Z,11.00
2018-09-13T12:58:58.356Z,13.08
2018-09-13T13:00:00.549Z,13.08
2018-09-13T13:01:02.730Z,12.63
2018-09-13T13:02:04.946Z,13.78
2018-09-13T13:03:07.187Z,10.75
2018-09-13T13:04:10.264Z,12.78
2018-09-13T13:05:12.435Z,14.45
2018-09-13T13:06:14.605Z,12.00
2018-09-13T13:07:16.765Z,10.88
2018-09-13T13:08:18.962Z,12.03
2018-09-13T13:09:21.213Z,9.65
2018-09-13T13:10:23.425Z,12.05
2018-09-13T13:11:25.625Z,13.10
2018-09-13T13:12:27.808Z,12.88
2018-09-13T13:13:30.038Z,12.73
2018-09-13T13:14:32.281Z,11.78
2018-09-13T13:15:34.485Z,12.65
2018-09-13T13:16:36.963Z,10.50
2018-09-13T13:17:39.327Z,10.40
2018-09-13T13:18:41.516Z,11.65
2018-09-13T13:19:44.077Z,12.95
2018-09-13T13:20:46.271Z,10.53
2018-09-13T13:21:48.417Z,11.60
2018-09-13T13:22:50.631Z,12.70
2018-09-13T13:23:53.094Z,10.15
2018-09-13T13:24:55.286Z,12.58
2018-09-13T13:25:57.457Z,9.10